createdAt,value
2022-12-18T00:02:03.219Z,14.40
2022-12-18T00:07:08.545Z,19.45
2022-12-18T00:17:21.302Z,16.13
2022-12-18T00:22:26.709Z,13.75
2022-12-18T00:27:32.096Z,14.80
2022-12-18T00:32:37.915Z,18.33
2022-12-18T00:37:43.428Z,18.23
2022-12-18T00:43:00.236Z,14.48
2022-12-18T00:53:11.030Z,11.85
2022-12-18T00:58:18.260Z,15.60
2022-12-18T01:03:23.690Z,11.43
2022-12-18T01:08:30.195Z,15.80
2022-12-18T01:13:36.311Z,13.48
2022-12-18T01:18:42.005Z,14.45
2022-12-18T01:23:47.709Z,10.50
2022-12-18T01:28:53.703Z,12.00
2022-12-18T01:34:00.038Z,10.35
2022-12-18T01:39:09.134Z,10.30
2022-12-18T01:44:51.914Z,10.10
2022-12-18T01:49:59.050Z,6.47
2022-12-18T01:55:07.083Z,9.18
2022-12-18T02:00:21.041Z,10.00
2022-12-18T02:05:50.531Z,8.85
2022-12-18T02:11:21.626Z,11.45
2022-12-18T02:16:53.242Z,11.05
2022-12-18T02:22:36.790Z,8.70
2022-12-18T02:27:47.488Z,10.32
2022-12-18T02:32:55.014Z,9.45
2022-12-18T02:38:00.853Z,9.30
2022-12-18T02:43:14.304Z,7.47
2022-12-18T02:48:27.840Z,10.50
2022-12-18T02:53:51.751Z,10.65
2022-12-18T02:59:12.233Z,9.63
2022-12-18T03:04:51.120Z,8.90
2022-12-18T03:09:58.388Z,8.07
2022-12-18T03:15:32.550Z,14.73
2022-12-18T03:20:50.989Z,8.57
2022-12-18T03:26:13.389Z,12.02
2022-12-18T03:31:25.606Z,9.65
2022-12-18T03:36:32.746Z,8.18
2022-12-18T03:42:18.393Z,11.43
2022-12-18T03:47:54.621Z,10.63
2022-12-18T03:53:31.984Z,9.43
2022-12-18T03:58:40.614Z,9.20
2022-12-18T04:04:10.286Z,8.73
2022-12-18T04:09:17.703Z,10.38
2022-12-18T04:14:25.653Z,8.30
2022-12-18T04:19:36.430Z,7.50
2022-12-18T04:24:42.941Z,9.23
2022-12-18T04:29:58.366Z,8.23
2022-12-18T04:35:05.683Z,8.43
2022-12-18T04:40:12.936Z,9.20
2022-12-18T04:45:23.969Z,8.45
2022-12-18T04:50:29.612Z,7.90
2022-12-18T04:55:35.079Z,9.50
2022-12-18T05:00:41.029Z,10.05
2022-12-18T05:05:46.439Z,7.95
2022-12-18T05:10:51.851Z,8.48
2022-12-18T05:15:57.671Z,10.70
2022-12-18T05:21:03.699Z,10.60
2022-12-18T05:26:19.296Z,10.50
2022-12-18T05:31:24.735Z,10.63
2022-12-18T05:36:30.301Z,6.40
2022-12-18T05:41:35.790Z,7.18
2022-12-18T05:46:42.480Z,11.95
2022-12-18T05:51:47.898Z,9.13
2022-12-18T05:56:53.317Z,10.88
2022-12-18T06:01:58.840Z,9.18
2022-12-18T06:07:07.722Z,8.70
2022-12-18T06:12:13.224Z,10.95
2022-12-18T06:17:18.679Z,8.85
2022-12-18T06:22:24.489Z,9.80
2022-12-18T06:27:29.951Z,10.60
2022-12-18T06:32:35.526Z,10.80
2022-12-18T06:37:41.001Z,10.93
2022-12-18T06:42:46.162Z,9.75
2022-12-18T06:47:51.885Z,7.53
2022-12-18T06:52:57.503Z,9.10
2022-12-18T06:58:03.003Z,6.85
2022-12-18T07:03:08.788Z,8.73
2022-12-18T07:08:14.487Z,7.50
2022-12-18T07:13:19.839Z,8.05
2022-12-18T07:18:25.232Z,6.20
2022-12-18T07:23:30.793Z,8.38
2022-12-18T07:28:37.695Z,7.97
2022-12-18T07:33:44.375Z,7.80
2022-12-18T07:38:53.131Z,6.80
2022-12-18T07:43:58.543Z,6.55
2022-12-18T07:49:03.930Z,5.13
2022-12-18T07:54:09.316Z,7.35
2022-12-18T07:59:17.562Z,6.63
2022-12-18T08:04:23.027Z,5.32
2022-12-18T08:09:28.467Z,6.90
2022-12-18T08:14:33.955Z,8.38
2022-12-18T08:19:39.271Z,6.93
2022-12-18T08:24:44.737Z,7.20
2022-12-18T08:29:50.073Z,8.02
2022-12-18T08:34:55.902Z,7.38
2022-12-18T08:40:01.426Z,6.82
2022-12-18T08:45:08.316Z,7.22
2022-12-18T08:50:13.921Z,7.03
2022-12-18T08:55:19.421Z,6.90
2022-12-18T09:00:26.042Z,8.70
2022-12-18T09:05:32.452Z,8.20
2022-12-18T09:10:45.310Z,8.00
2022-12-18T09:15:53.413Z,8.20
2022-12-18T09:20:58.964Z,9.02
2022-12-18T09:26:04.525Z,9.20
2022-12-18T09:31:10.370Z,9.55
2022-12-18T09:36:19.397Z,8.02
2022-12-18T09:41:40.518Z,8.52
2022-12-18T09:46:54.074Z,11.32
2022-12-18T09:52:32.042Z,8.93
2022-12-18T09:57:48.743Z,9.27
2022-12-18T10:03:02.984Z,10.35
2022-12-18T10:08:40.041Z,9.80
2022-12-18T10:14:33.518Z,10.75
2022-12-18T10:19:51.503Z,8.68
2022-12-18T10:25:05.803Z,9.82
2022-12-18T10:30:18.857Z,10.77
2022-12-18T10:35:28.355Z,8.52
2022-12-18T10:40:35.022Z,8.18
2022-12-18T10:45:41.007Z,9.98
2022-12-18T10:56:22.944Z,8.20
2022-12-18T11:01:30.018Z,8.18
2022-12-18T11:06:35.259Z,8.65
2022-12-18T11:11:41.342Z,7.43
2022-12-18T11:17:23.648Z,7.57
2022-12-18T11:22:28.051Z,7.18
2022-12-18T11:27:34.156Z,7.57
2022-12-18T11:33:08.641Z,8.00
2022-12-18T11:38:28.563Z,6.60
2022-12-18T11:43:50.480Z,6.30
2022-12-18T11:49:41.338Z,6.43
2022-12-18T11:54:46.806Z,5.20
2022-12-18T12:00:06.125Z,6.63
2022-12-18T12:05:29.541Z,6.95
2022-12-18T12:11:09.093Z,6.25
2022-12-18T12:16:40.550Z,6.47
2022-12-18T12:22:00.700Z,5.28
2022-12-18T12:27:21.984Z,8.02
2022-12-18T12:32:49.630Z,6.80
2022-12-18T12:38:12.990Z,4.78
2022-12-18T12:43:49.612Z,5.75
2022-12-18T12:49:10.894Z,6.35
2022-12-18T12:54:25.707Z,5.50
2022-12-18T13:05:29.143Z,9.32
2022-12-18T13:10:38.035Z,8.05
2022-12-18T13:15:46.876Z,9.35
2022-12-18T13:21:03.522Z,10.00
2022-12-18T13:26:12.081Z,7.95
2022-12-18T13:31:17.581Z,10.18
2022-12-18T13:36:33.875Z,8.30
2022-12-18T13:41:39.418Z,9.10
2022-12-18T13:46:48.027Z,9.07
2022-12-18T13:51:56.845Z,8.82
2022-12-18T13:57:03.436Z,8.73
2022-12-18T14:02:41.221Z,7.90
2022-12-18T14:07:48.357Z,8.68
2022-12-18T14:13:03.212Z,8.50
2022-12-18T14:18:35.206Z,8.65
2022-12-18T14:23:44.463Z,9.45
2022-12-18T14:28:50.193Z,9.32
2022-12-18T14:33:55.112Z,8.65
2022-12-18T14:39:01.119Z,7.97
2022-12-18T14:44:08.962Z,6.85
2022-12-18T14:49:38.386Z,9.48
2022-12-18T14:54:49.679Z,8.98
2022-12-18T14:59:55.284Z,8.80
2022-12-18T15:05:12.999Z,7.57
2022-12-18T15:10:24.868Z,6.47
2022-12-18T15:15:41.073Z,6.53
2022-12-18T15:21:01.904Z,6.70
2022-12-18T15:31:15.096Z,5.68
2022-12-18T15:36:32.174Z,6.65
2022-12-18T15:41:38.297Z,4.32
2022-12-18T15:46:45.064Z,5.90
2022-12-18T15:52:03.740Z,5.72
2022-12-18T15:57:26.406Z,4.55
2022-12-18T16:02:32.611Z,4.65
2022-12-18T16:07:38.144Z,7.43
2022-12-18T16:12:44.394Z,9.38
2022-12-18T16:17:50.144Z,6.70
2022-12-18T16:22:56.143Z,6.20
2022-12-18T16:28:01.911Z,6.70
2022-12-18T16:33:07.604Z,5.72
2022-12-18T16:38:13.240Z,6.97
2022-12-18T16:43:17.390Z,6.85
2022-12-18T16:48:23.145Z,7.47
2022-12-18T16:53:28.565Z,7.00
2022-12-18T16:58:34.782Z,5.88
2022-12-18T17:03:41.345Z,7.15
2022-12-18T17:08:50.123Z,6.47
2022-12-18T17:13:56.028Z,7.32
2022-12-18T17:19:03.687Z,7.45
2022-12-18T17:24:09.601Z,7.35
2022-12-18T17:29:17.912Z,5.80
2022-12-18T17:34:24.931Z,5.57
2022-12-18T17:39:31.291Z,4.85
2022-12-18T17:44:38.154Z,5.28
2022-12-18T17:49:43.577Z,4.57
2022-12-18T17:54:48.989Z,4.60
2022-12-18T17:59:54.467Z,3.65
2022-12-18T18:05:00.885Z,3.40
2022-12-18T18:10:07.963Z,3.05
2022-12-18T18:15:13.642Z,2.58
2022-12-18T18:20:22.495Z,3.78
2022-12-18T18:25:30.447Z,3.90
2022-12-18T18:30:37.915Z,4.22
2022-12-18T18:35:54.737Z,3.88
2022-12-18T18:41:06.438Z,4.22
2022-12-18T18:46:14.258Z,3.83
2022-12-18T18:51:21.696Z,3.60
2022-12-18T18:56:56.120Z,4.35
2022-12-18T19:01:55.230Z,4.18
2022-12-18T19:07:00.638Z,3.38
2022-12-18T19:12:26.213Z,3.70
2022-12-18T19:17:31.822Z,3.30
2022-12-18T19:22:37.406Z,3.30
2022-12-18T19:27:42.734Z,3.10
2022-12-18T19:32:48.082Z,2.90
2022-12-18T19:37:53.602Z,3.22
2022-12-18T19:42:59.195Z,2.70
2022-12-18T19:48:07.982Z,3.42
2022-12-18T19:53:13.371Z,2.97
2022-12-18T19:58:18.871Z,3.33
2022-12-18T20:03:32.512Z,2.65
2022-12-18T20:08:39.342Z,2.83
2022-12-18T20:13:44.876Z,2.75
2022-12-18T20:18:50.614Z,2.42
2022-12-18T20:24:23.773Z,2.58
2022-12-18T20:29:29.378Z,1.90
2022-12-18T20:34:34.838Z,1.85
2022-12-18T20:39:40.697Z,1.58
2022-12-18T20:44:46.403Z,0.80
2022-12-18T20:49:51.759Z,1.15
2022-12-18T20:54:57.461Z,1.50
2022-12-18T21:00:05.174Z,1.65
2022-12-18T21:05:10.697Z,2.03
2022-12-18T21:10:16.078Z,2.47
2022-12-18T21:15:28.208Z,1.90
2022-12-18T21:20:36.872Z,1.67
2022-12-18T21:25:42.391Z,1.60
2022-12-18T21:30:47.837Z,2.13
2022-12-18T21:35:53.220Z,2.08
2022-12-18T21:40:58.891Z,1.65
2022-12-18T21:46:04.327Z,1.95
2022-12-18T21:51:10.367Z,1.63
2022-12-18T21:56:15.863Z,1.98
2022-12-18T22:01:23.455Z,0.80
2022-12-18T22:06:29.234Z,0.93
2022-12-18T22:11:34.706Z,2.38
2022-12-18T22:16:40.576Z,1.38
2022-12-18T22:21:49.241Z,1.88
2022-12-18T22:27:21.745Z,1.52
2022-12-18T22:32:30.635Z,1.63
2022-12-18T22:37:36.775Z,2.45
2022-12-18T22:42:42.482Z,3.03
2022-12-18T22:47:47.971Z,2.35
2022-12-18T22:52:53.363Z,2.90
2022-12-18T22:57:59.071Z,2.97
2022-12-18T23:03:04.963Z,3.00
2022-12-18T23:08:13.701Z,2.90
2022-12-18T23:13:19.777Z,2.08
2022-12-18T23:18:24.977Z,2.25
2022-12-18T23:23:30.257Z,3.42
2022-12-18T23:28:37.820Z,2.42
2022-12-18T23:33:44.425Z,3.50
2022-12-18T23:38:52.061Z,3.05
2022-12-18T23:43:58.104Z,3.03
2022-12-18T23:49:06.613Z,2.78
2022-12-18T23:54:12.061Z,3.40
2022-12-18T23:59:20.279Z,2.85
